createdAt,value
2018-06-09T00:01:13.454Z,26.00
2018-06-09T00:03:41.946Z,25.90
2018-06-09T00:06:10.319Z,25.90
2018-06-09T00:08:38.679Z,25.90
2018-06-09T00:11:07.125Z,25.90
2018-06-09T00:13:35.507Z,25.90
2018-06-09T00:16:03.858Z,25.90
2018-06-09T00:18:32.220Z,25.90
2018-06-09T00:21:00.678Z,25.90
2018-06-09T00:23:29.131Z,26.00
2018-06-09T00:25:57.557Z,26.00
2018-06-09T00:28:25.979Z,26.00
2018-06-09T00:30:54.359Z,26.10
2018-06-09T00:33:22.722Z,26.10
2018-06-09T00:35:51.143Z,26.00
2018-06-09T00:38:19.519Z,26.00
2018-06-09T00:40:47.896Z,26.10
2018-06-09T00:43:16.349Z,26.10
2018-06-09T00:45:44.747Z,26.10
2018-06-09T00:48:13.091Z,26.00
2018-06-09T00:50:41.496Z,26.00
2018-06-09T00:53:09.877Z,26.00
2018-06-09T00:55:38.267Z,26.00
2018-06-09T00:58:06.803Z,26.00
2018-06-09T01:00:35.261Z,25.90
2018-06-09T01:03:03.655Z,25.80
2018-06-09T01:05:32.080Z,25.80
2018-06-09T01:08:00.469Z,25.80
2018-06-09T01:10:28.835Z,25.80
2018-06-09T01:12:57.197Z,25.90
2018-06-09T01:15:25.601Z,25.90
2018-06-09T01:17:53.956Z,25.80
2018-06-09T01:20:22.939Z,25.90
2018-06-09T01:22:51.304Z,25.90
2018-06-09T01:25:19.987Z,25.90
2018-06-09T01:27:48.414Z,25.90
2018-06-09T01:30:16.759Z,25.90
2018-06-09T01:32:45.093Z,25.90
2018-06-09T01:37:41.559Z,25.90
2018-06-09T01:40:09.914Z,25.90
2018-06-09T01:47:34.531Z,25.90
2018-06-09T01:50:03.026Z,25.90
2018-06-09T01:52:31.421Z,25.90
2018-06-09T01:54:59.782Z,25.90
2018-06-09T01:57:28.207Z,25.90
2018-06-09T01:59:56.559Z,25.90
2018-06-09T02:02:24.862Z,25.90
2018-06-09T02:04:53.218Z,25.90
2018-06-09T02:07:21.576Z,25.90
2018-06-09T02:09:50.056Z,25.80
2018-06-09T02:12:18.417Z,25.70
2018-06-09T02:14:46.871Z,25.70
2018-06-09T02:17:15.232Z,25.70
2018-06-09T02:19:43.616Z,25.70
2018-06-09T02:22:11.988Z,25.70
2018-06-09T02:24:40.429Z,25.70
2018-06-09T02:27:08.782Z,25.70
2018-06-09T02:29:37.176Z,25.70
2018-06-09T02:32:05.574Z,25.70
2018-06-09T02:34:34.112Z,25.70
2018-06-09T02:37:02.496Z,25.70
2018-06-09T02:39:30.836Z,25.70
2018-06-09T02:41:59.172Z,25.60
2018-06-09T02:44:27.659Z,25.70
2018-06-09T02:46:55.996Z,25.70
2018-06-09T02:49:24.373Z,25.60
2018-06-09T02:51:52.766Z,25.60
2018-06-09T02:54:21.377Z,25.50
2018-06-09T02:56:49.747Z,25.40
2018-06-09T02:59:18.211Z,25.40
2018-06-09T03:01:46.574Z,25.40
2018-06-09T03:04:14.936Z,25.40
2018-06-09T03:06:43.361Z,25.40
2018-06-09T03:09:11.829Z,25.50
2018-06-09T03:11:40.185Z,25.50
2018-06-09T03:14:08.675Z,25.50
2018-06-09T03:16:37.173Z,25.50
2018-06-09T03:19:05.660Z,25.60
2018-06-09T03:21:34.079Z,25.60
2018-06-09T03:24:02.602Z,25.60
2018-06-09T03:26:31.003Z,25.60
2018-06-09T03:28:59.473Z,25.60
2018-06-09T03:31:27.885Z,25.60
2018-06-09T03:33:56.269Z,25.60
2018-06-09T03:36:24.675Z,25.60
2018-06-09T03:38:53.018Z,25.50
2018-06-09T03:41:21.389Z,25.40
2018-06-09T03:43:49.797Z,25.40
2018-06-09T03:46:18.195Z,25.40
2018-06-09T03:48:46.636Z,25.40
2018-06-09T03:51:14.963Z,25.40
2018-06-09T03:53:43.371Z,25.40
2018-06-09T03:56:11.737Z,25.40
2018-06-09T03:58:40.117Z,25.40
2018-06-09T04:01:08.619Z,25.40
2018-06-09T04:03:37.200Z,25.50
2018-06-09T04:06:05.577Z,25.40
2018-06-09T04:08:33.925Z,25.40
2018-06-09T04:11:02.361Z,25.40
2018-06-09T04:15:58.799Z,25.40
2018-06-09T04:18:27.153Z,25.50
2018-06-09T04:20:55.537Z,25.40
2018-06-09T04:23:23.924Z,25.40
2018-06-09T04:25:52.337Z,25.40
2018-06-09T04:28:20.864Z,25.40
2018-06-09T04:30:49.205Z,25.40
2018-06-09T04:33:17.573Z,25.40
2018-06-09T04:35:45.931Z,25.40
2018-06-09T04:40:42.635Z,25.30
2018-06-09T04:43:11.669Z,25.30
2018-06-09T04:45:40.010Z,25.30
2018-06-09T04:48:08.374Z,25.30
2018-06-09T04:50:36.750Z,25.30
2018-06-09T04:53:05.286Z,25.20
2018-06-09T04:55:33.814Z,25.20
2018-06-09T04:58:02.178Z,25.10
2018-06-09T05:00:30.571Z,25.10
2018-06-09T05:02:58.934Z,25.00
2018-06-09T05:05:27.318Z,24.90
2018-06-09T05:07:55.760Z,24.90
2018-06-09T05:10:24.184Z,25.00
2018-06-09T05:12:52.594Z,25.00
2018-06-09T05:15:21.098Z,25.00
2018-06-09T05:17:49.525Z,25.00
2018-06-09T05:20:17.913Z,25.00
2018-06-09T05:22:46.394Z,25.10
2018-06-09T05:25:14.763Z,25.20
2018-06-09T05:27:43.178Z,25.30
2018-06-09T05:30:11.622Z,25.20
2018-06-09T05:32:41.146Z,25.10
2018-06-09T05:35:09.524Z,25.10
2018-06-09T05:37:38.080Z,25.10
2018-06-09T05:40:06.499Z,25.10
2018-06-09T05:42:34.822Z,25.10
2018-06-09T05:45:03.328Z,25.10
2018-06-09T05:47:31.670Z,25.00
2018-06-09T05:50:00.111Z,25.10
2018-06-09T05:52:28.650Z,25.10
2018-06-09T05:54:57.210Z,25.10
2018-06-09T05:57:25.684Z,25.10
2018-06-09T05:59:54.080Z,25.20
2018-06-09T06:02:22.570Z,25.20
2018-06-09T06:04:50.961Z,25.20
2018-06-09T06:07:19.364Z,25.30
2018-06-09T06:09:47.704Z,25.30
2018-06-09T06:12:16.046Z,25.30
2018-06-09T06:17:12.476Z,25.20
2018-06-09T06:19:41.026Z,25.30
2018-06-09T06:22:09.502Z,25.40
2018-06-09T06:24:37.897Z,25.40
2018-06-09T06:27:06.288Z,25.40
2018-06-09T06:29:34.734Z,25.50
2018-06-09T06:32:03.432Z,25.40
2018-06-09T06:34:31.832Z,25.30
2018-06-09T06:37:00.238Z,25.30
2018-06-09T06:39:28.686Z,25.30
2018-06-09T06:41:57.028Z,25.30
2018-06-09T06:44:25.630Z,25.30
2018-06-09T06:46:53.952Z,25.30
2018-06-09T06:49:22.424Z,25.20
2018-06-09T06:51:50.836Z,25.20
2018-06-09T06:54:19.210Z,25.10
2018-06-09T06:56:47.596Z,25.10
2018-06-09T06:59:15.956Z,25.20
2018-06-09T07:01:44.465Z,25.20
2018-06-09T07:04:12.826Z,25.30
2018-06-09T07:06:41.354Z,25.30
2018-06-09T07:09:09.768Z,25.20
2018-06-09T07:11:38.181Z,25.30
2018-06-09T07:14:06.549Z,25.30
2018-06-09T07:16:34.967Z,25.30
2018-06-09T07:19:03.521Z,25.40
2018-06-09T07:21:32.039Z,25.50
2018-06-09T07:24:00.460Z,25.40
2018-06-09T07:26:28.816Z,25.40
2018-06-09T07:28:57.185Z,25.40
2018-06-09T07:31:25.589Z,25.50
2018-06-09T07:33:53.972Z,25.40
2018-06-09T07:36:22.371Z,25.40
2018-06-09T07:38:50.729Z,25.40
2018-06-09T07:41:19.197Z,25.50
2018-06-09T07:43:47.603Z,25.60
2018-06-09T07:46:15.909Z,25.60
2018-06-09T07:48:44.283Z,25.50
2018-06-09T07:51:12.777Z,25.50
2018-06-09T07:53:41.165Z,25.50
2018-06-09T07:56:09.579Z,25.50
2018-06-09T07:58:37.968Z,25.50
2018-06-09T08:01:06.367Z,25.40
2018-06-09T08:03:34.928Z,25.40
2018-06-09T08:06:03.318Z,25.40
2018-06-09T08:08:31.661Z,25.40
2018-06-09T08:11:00.097Z,25.40
2018-06-09T08:13:28.511Z,25.50
2018-06-09T08:15:57.155Z,25.60
2018-06-09T08:18:25.559Z,25.70
2018-06-09T08:20:53.934Z,25.80
2018-06-09T08:23:22.300Z,25.80
2018-06-09T08:28:18.645Z,25.80
2018-06-09T08:30:46.972Z,25.80
2018-06-09T08:33:15.423Z,25.70
2018-06-09T08:35:43.917Z,25.80
2018-06-09T08:38:12.500Z,25.80
2018-06-09T08:40:40.858Z,25.70
2018-06-09T08:43:09.384Z,25.70
2018-06-09T08:45:37.726Z,25.80
2018-06-09T08:48:06.105Z,25.70
2018-06-09T08:50:34.480Z,25.70
2018-06-09T08:53:02.932Z,25.80
2018-06-09T08:55:31.433Z,25.80
2018-06-09T08:57:59.791Z,25.90
2018-06-09T09:00:28.181Z,25.90
2018-06-09T09:02:56.615Z,25.90
2018-06-09T09:05:25.003Z,25.90
2018-06-09T09:07:53.390Z,25.90
2018-06-09T09:10:21.749Z,25.90
2018-06-09T09:12:50.126Z,25.90
2018-06-09T09:15:18.698Z,25.90
2018-06-09T09:17:47.039Z,25.90
2018-06-09T09:20:15.411Z,25.90
2018-06-09T09:22:43.890Z,25.90
2018-06-09T09:25:12.227Z,25.90
2018-06-09T09:27:40.645Z,25.90
2018-06-09T09:30:09.034Z,25.90
2018-06-09T09:32:37.408Z,26.00
2018-06-09T09:35:05.807Z,26.00
2018-06-09T09:37:34.147Z,26.00
2018-06-09T09:40:02.549Z,26.00
2018-06-09T09:42:30.885Z,26.10
2018-06-09T09:44:59.287Z,26.10
2018-06-09T09:47:27.755Z,26.20
2018-06-09T09:49:56.169Z,26.20
2018-06-09T09:52:24.603Z,26.20
2018-06-09T09:54:53.048Z,26.20
2018-06-09T09:57:21.393Z,26.20
2018-06-09T09:59:49.776Z,26.20
2018-06-09T10:02:20.004Z,26.20
2018-06-09T10:04:48.461Z,26.10
2018-06-09T10:07:16.905Z,26.20
2018-06-09T10:09:45.285Z,26.10
2018-06-09T10:12:13.650Z,26.10
2018-06-09T10:14:42.129Z,26.20
2018-06-09T10:19:38.846Z,26.30
2018-06-09T10:22:07.289Z,26.30
2018-06-09T10:24:35.840Z,26.20
2018-06-09T10:27:04.390Z,26.20
2018-06-09T10:29:32.939Z,26.20
2018-06-09T10:32:01.392Z,26.30
2018-06-09T10:34:29.862Z,26.30
2018-06-09T10:36:58.374Z,26.30
2018-06-09T10:39:27.139Z,26.30
2018-06-09T10:41:56.456Z,26.40
2018-06-09T10:44:25.791Z,26.40
2018-06-09T10:46:54.337Z,26.40
2018-06-09T10:49:22.761Z,26.40
2018-06-09T10:51:51.159Z,26.40
2018-06-09T10:54:19.641Z,26.40
2018-06-09T10:56:48.087Z,26.40
2018-06-09T10:59:16.739Z,26.50
2018-06-09T11:01:45.189Z,26.50
2018-06-09T11:04:13.605Z,26.50
2018-06-09T11:06:42.181Z,26.50
2018-06-09T11:09:10.642Z,26.50
2018-06-09T11:11:39.085Z,26.50
2018-06-09T11:14:07.455Z,26.60
2018-06-09T11:16:35.855Z,26.60
2018-06-09T11:19:04.309Z,26.60
2018-06-09T11:21:32.910Z,26.70
2018-06-09T11:24:01.377Z,26.70
2018-06-09T11:26:30.012Z,26.70
2018-06-09T11:28:58.441Z,26.70
2018-06-09T11:31:26.937Z,26.80
2018-06-09T11:33:55.465Z,26.80
2018-06-09T11:36:23.942Z,26.90
2018-06-09T11:38:52.413Z,26.90
2018-06-09T11:41:20.841Z,26.90
2018-06-09T11:43:49.244Z,27.00
2018-06-09T11:46:17.649Z,27.10
2018-06-09T11:48:46.028Z,27.00
2018-06-09T11:51:14.441Z,27.00
2018-06-09T11:53:43.216Z,26.90
2018-06-09T11:56:11.778Z,26.90
2018-06-09T11:58:40.247Z,26.90
2018-06-09T12:01:08.723Z,26.90
2018-06-09T12:03:37.180Z,26.80
2018-06-09T12:06:06.347Z,26.80
2018-06-09T12:08:34.853Z,26.80
2018-06-09T12:11:03.330Z,26.80
2018-06-09T12:13:31.919Z,26.80
2018-06-09T12:16:00.431Z,26.80
2018-06-09T12:18:28.831Z,26.80
2018-06-09T12:20:57.264Z,26.80
2018-06-09T12:23:27.205Z,26.70
2018-06-09T12:25:55.587Z,26.70
2018-06-09T12:28:24.069Z,26.70
2018-06-09T12:30:52.373Z,26.70
2018-06-09T12:33:21.069Z,26.70
2018-06-09T12:35:49.462Z,26.70
2018-06-09T12:40:46.001Z,26.70
2018-06-09T12:45:42.848Z,26.70
2018-06-09T12:48:11.301Z,26.70
2018-06-09T12:50:39.707Z,26.70
2018-06-09T12:53:08.043Z,26.80
2018-06-09T12:55:36.460Z,26.70
2018-06-09T12:58:04.883Z,26.70
2018-06-09T13:00:33.327Z,26.80
2018-06-09T13:03:01.854Z,26.70
2018-06-09T13:05:30.344Z,26.80
2018-06-09T13:07:58.801Z,26.70
2018-06-09T13:10:27.220Z,26.80
2018-06-09T13:12:55.619Z,26.80
2018-06-09T13:15:24.039Z,26.80
2018-06-09T13:17:52.576Z,26.70
2018-06-09T13:20:21.065Z,26.80
2018-06-09T13:25:17.689Z,26.70
2018-06-09T13:27:46.169Z,26.70
2018-06-09T13:30:14.672Z,26.70
2018-06-09T13:32:43.089Z,26.70
2018-06-09T13:35:11.634Z,26.70
2018-06-09T13:37:40.017Z,26.70
2018-06-09T13:40:08.425Z,26.70
2018-06-09T13:42:36.807Z,26.70
2018-06-09T13:45:05.229Z,26.60
2018-06-09T13:47:33.551Z,26.60
2018-06-09T13:50:01.971Z,26.60
2018-06-09T13:52:30.311Z,26.50
2018-06-09T13:54:58.838Z,26.50
2018-06-09T13:57:27.586Z,26.50
2018-06-09T13:59:56.011Z,26.40
2018-06-09T14:02:24.357Z,26.40
2018-06-09T14:04:52.751Z,26.30
2018-06-09T14:07:21.271Z,26.30
2018-06-09T14:09:49.717Z,26.30
2018-06-09T14:12:18.103Z,26.20
2018-06-09T14:14:46.472Z,26.20
2018-06-09T14:17:14.943Z,26.20
2018-06-09T14:19:43.317Z,26.10
2018-06-09T14:22:11.729Z,26.10
2018-06-09T14:24:40.089Z,26.10
2018-06-09T14:27:08.570Z,26.10
2018-06-09T14:29:36.983Z,26.10
2018-06-09T14:32:05.527Z,26.10
2018-06-09T14:34:34.060Z,26.00
2018-06-09T14:37:02.570Z,26.00
2018-06-09T14:39:30.967Z,26.00
2018-06-09T14:41:59.345Z,26.00
2018-06-09T14:44:27.725Z,26.00
2018-06-09T14:46:56.250Z,25.90
2018-06-09T14:49:24.703Z,25.90
2018-06-09T14:51:53.173Z,25.90
2018-06-09T14:54:21.569Z,25.70
2018-06-09T14:56:50.030Z,25.70
2018-06-09T14:59:18.437Z,25.70
2018-06-09T15:01:46.805Z,25.70
2018-06-09T15:04:15.315Z,25.70
2018-06-09T15:06:43.755Z,25.70
2018-06-09T15:09:12.174Z,25.70
2018-06-09T15:11:40.640Z,25.70
2018-06-09T15:14:09.079Z,25.70
2018-06-09T15:16:37.694Z,25.70
2018-06-09T15:19:06.069Z,25.70
2018-06-09T15:21:34.444Z,25.80
2018-06-09T15:24:02.867Z,25.80
2018-06-09T15:26:31.407Z,25.80
2018-06-09T15:28:59.797Z,25.90
2018-06-09T15:31:28.198Z,25.80
2018-06-09T15:33:56.657Z,25.80
2018-06-09T15:36:25.077Z,25.80
2018-06-09T15:38:53.438Z,25.80
2018-06-09T15:41:21.953Z,25.70
2018-06-09T15:43:50.345Z,25.70
2018-06-09T15:48:46.969Z,25.70
2018-06-09T15:51:15.456Z,25.70
2018-06-09T15:53:43.999Z,25.70
2018-06-09T15:56:12.344Z,25.70
2018-06-09T15:58:40.708Z,25.70
2018-06-09T16:01:09.100Z,25.60
2018-06-09T16:03:37.486Z,25.60
2018-06-09T16:06:05.884Z,25.60
2018-06-09T16:08:34.393Z,25.40
2018-06-09T16:11:02.831Z,25.40
2018-06-09T16:13:31.224Z,25.40
2018-06-09T16:15:59.602Z,25.30
2018-06-09T16:18:28.025Z,25.40
2018-06-09T16:20:56.521Z,25.40
2018-06-09T16:23:24.954Z,25.40
2018-06-09T16:25:53.336Z,25.50
2018-06-09T16:28:21.714Z,25.50
2018-06-09T16:30:50.121Z,25.60
2018-06-09T16:33:18.674Z,25.60
2018-06-09T16:35:47.084Z,25.60
2018-06-09T16:38:15.438Z,25.60
2018-06-09T16:40:43.951Z,25.60
2018-06-09T16:43:12.335Z,25.60
2018-06-09T16:45:40.940Z,25.70
2018-06-09T16:48:09.358Z,25.70
2018-06-09T16:50:37.748Z,25.70
2018-06-09T16:53:06.199Z,25.70
2018-06-09T16:55:34.710Z,25.70
2018-06-09T16:58:03.167Z,25.70
2018-06-09T17:00:31.585Z,25.70
2018-06-09T17:03:00.030Z,25.70
2018-06-09T17:05:28.588Z,25.80
2018-06-09T17:07:57.148Z,25.80
2018-06-09T17:10:25.600Z,25.80
2018-06-09T17:12:54.006Z,25.70
2018-06-09T17:15:22.364Z,25.70
2018-06-09T17:17:50.770Z,25.70
2018-06-09T17:20:20.124Z,25.60
2018-06-09T17:22:48.567Z,25.60
2018-06-09T17:25:17.162Z,25.50
2018-06-09T17:27:45.589Z,25.50
2018-06-09T17:30:13.942Z,25.50
2018-06-09T17:32:42.332Z,25.40
2018-06-09T17:35:10.732Z,25.40
2018-06-09T17:37:39.322Z,25.40
2018-06-09T17:40:07.709Z,25.50
2018-06-09T17:42:36.123Z,25.50
2018-06-09T17:45:04.552Z,25.50
2018-06-09T17:47:32.972Z,25.50
2018-06-09T17:50:01.549Z,25.60
2018-06-09T17:52:29.994Z,25.60
2018-06-09T17:54:58.357Z,25.60
2018-06-09T17:57:26.837Z,25.60
2018-06-09T17:59:55.287Z,25.60
2018-06-09T18:02:23.964Z,25.60
2018-06-09T18:04:52.391Z,25.60
2018-06-09T18:07:20.799Z,25.70
2018-06-09T18:09:49.220Z,25.90
2018-06-09T18:12:17.784Z,25.90
2018-06-09T18:14:46.148Z,25.80
2018-06-09T18:17:14.683Z,25.80
2018-06-09T18:19:43.123Z,25.80
2018-06-09T18:22:11.515Z,25.70
2018-06-09T18:24:39.996Z,25.70
2018-06-09T18:27:08.466Z,25.70
2018-06-09T18:29:36.850Z,25.70
2018-06-09T18:32:05.425Z,25.70
2018-06-09T18:34:33.765Z,25.70
2018-06-09T18:37:02.209Z,25.70
2018-06-09T18:39:30.594Z,25.70
2018-06-09T18:41:58.988Z,25.70
2018-06-09T18:44:27.402Z,25.70
2018-06-09T18:46:55.829Z,25.70
2018-06-09T18:49:24.356Z,25.70
2018-06-09T18:51:52.737Z,25.70
2018-06-09T18:54:21.180Z,25.70
2018-06-09T18:56:50.709Z,25.60
2018-06-09T18:59:19.148Z,25.60
2018-06-09T19:01:47.519Z,25.60
2018-06-09T19:04:15.963Z,25.60
2018-06-09T19:06:44.355Z,25.60
2018-06-09T19:09:12.758Z,25.60
2018-06-09T19:11:41.155Z,25.60
2018-06-09T19:14:09.585Z,25.50
2018-06-09T19:16:38.047Z,25.50
2018-06-09T19:19:06.484Z,25.50
2018-06-09T19:21:34.924Z,25.60
2018-06-09T19:24:03.400Z,25.60
2018-06-09T19:26:31.864Z,25.60
2018-06-09T19:29:00.341Z,25.50
2018-06-09T19:31:28.943Z,25.50
2018-06-09T19:33:57.342Z,25.50
2018-06-09T19:36:25.735Z,25.60
2018-06-09T19:38:54.090Z,25.50
2018-06-09T19:41:22.589Z,25.60
2018-06-09T19:43:50.953Z,25.60
2018-06-09T19:46:19.423Z,25.60
2018-06-09T19:48:47.922Z,25.60
2018-06-09T19:51:16.383Z,25.50
2018-06-09T19:53:44.905Z,25.50
2018-06-09T19:56:13.284Z,25.40
2018-06-09T19:58:41.639Z,25.40
2018-06-09T20:01:10.180Z,25.40
2018-06-09T20:03:39.562Z,25.30
2018-06-09T20:06:07.947Z,25.30
2018-06-09T20:08:36.507Z,25.30
2018-06-09T20:11:04.892Z,25.20
2018-06-09T20:13:33.424Z,25.20
2018-06-09T20:16:01.876Z,25.10
2018-06-09T20:18:30.534Z,25.10
2018-06-09T20:21:00.207Z,25.20
2018-06-09T20:23:28.641Z,25.10
2018-06-09T20:25:57.230Z,25.00
2018-06-09T20:28:25.686Z,25.00
2018-06-09T20:30:54.068Z,24.90
2018-06-09T20:33:22.623Z,24.90
2018-06-09T20:35:51.028Z,24.90
2018-06-09T20:38:19.450Z,24.90
2018-06-09T20:40:47.922Z,24.90
2018-06-09T20:43:16.304Z,24.90
2018-06-09T20:45:44.802Z,24.90
2018-06-09T20:48:13.212Z,24.80
2018-06-09T20:50:48.324Z,24.70
2018-06-09T20:53:16.988Z,24.70
2018-06-09T20:55:45.408Z,24.70
2018-06-09T20:58:14.148Z,24.60
2018-06-09T21:00:42.654Z,24.60
2018-06-09T21:03:11.054Z,24.60
2018-06-09T21:05:39.603Z,24.70
2018-06-09T21:08:08.300Z,24.70
2018-06-09T21:10:36.686Z,24.70
2018-06-09T21:13:05.166Z,24.60
2018-06-09T21:15:33.643Z,24.60
2018-06-09T21:18:02.077Z,24.60
2018-06-09T21:20:30.440Z,24.50
2018-06-09T21:23:05.695Z,24.40
2018-06-09T21:25:34.139Z,24.50
2018-06-09T21:28:08.738Z,24.50
2018-06-09T21:30:42.752Z,24.60
2018-06-09T21:33:26.791Z,24.60
2018-06-09T21:36:02.201Z,24.60
2018-06-09T21:38:38.764Z,24.60
2018-06-09T21:41:12.414Z,24.50
2018-06-09T21:43:46.147Z,24.60
2018-06-09T21:46:20.119Z,24.60
2018-06-09T21:48:48.531Z,24.70
2018-06-09T21:51:16.908Z,24.60
2018-06-09T21:53:45.436Z,24.50
2018-06-09T21:56:13.861Z,24.50
2018-06-09T21:58:42.290Z,24.40
2018-06-09T22:01:10.763Z,24.50
2018-06-09T22:03:39.261Z,24.40
2018-06-09T22:08:35.829Z,24.50
2018-06-09T22:11:04.271Z,24.60
2018-06-09T22:13:32.852Z,24.60
2018-06-09T22:16:01.232Z,24.70
2018-06-09T22:18:29.642Z,24.70
2018-06-09T22:20:58.013Z,24.80
2018-06-09T22:23:26.308Z,24.80
2018-06-09T22:25:59.007Z,24.90
2018-06-09T22:28:27.935Z,24.90
2018-06-09T22:30:56.343Z,25.00
2018-06-09T22:33:24.824Z,24.90
2018-06-09T22:35:53.278Z,24.90
2018-06-09T22:38:21.669Z,24.90
2018-06-09T22:40:50.059Z,25.00
2018-06-09T22:45:46.537Z,25.00
2018-06-09T22:48:14.971Z,25.10
2018-06-09T22:50:43.399Z,25.00
2018-06-09T22:53:11.781Z,25.00
2018-06-09T22:55:40.320Z,25.00
2018-06-09T22:58:08.720Z,24.90
2018-06-09T23:00:53.230Z,24.90
2018-06-09T23:03:21.647Z,24.90
2018-06-09T23:05:49.999Z,24.90
2018-06-09T23:08:18.338Z,24.90
2018-06-09T23:10:46.867Z,24.90
2018-06-09T23:13:15.985Z,24.80
2018-06-09T23:15:44.463Z,24.70
2018-06-09T23:18:12.895Z,24.60
2018-06-09T23:20:41.336Z,24.60
2018-06-09T23:23:09.777Z,24.60
2018-06-09T23:25:38.355Z,24.50
2018-06-09T23:28:06.770Z,24.50
2018-06-09T23:30:35.302Z,24.60
2018-06-09T23:33:03.711Z,24.60
2018-06-09T23:35:32.139Z,24.50
2018-06-09T23:38:00.645Z,24.50
2018-06-09T23:40:29.291Z,24.50
2018-06-09T23:42:57.743Z,24.40
2018-06-09T23:47:54.465Z,24.40
2018-06-09T23:50:22.993Z,24.40
2018-06-09T23:52:51.477Z,24.40
2018-06-09T23:55:20.157Z,24.50
2018-06-09T23:57:49.166Z,24.60
